Time;durP1;ratioP1;P1;durP2;ratioP2;P2;SDS_P1;SDS_P2;PMS_P1;PMS_P2;Temp;Humidity;BMP_temperature;BMP_pressure;BME280_temperature;BME280_humidity;BME280_pressure;Samples;Min_cycle;Max_cycle;Signal;HPM_P1;HPM_P2
2023/04/24 00:01:48;;;;;;;0.20;0.20;;;;;;;11.68;99.40;94559.84;4383839;32;20210;-60
2023/04/24 00:04:16;;;;;;;0.20;0.20;;;;;;;11.65;98.78;94560.47;4377238;32;20222;-60
2023/04/24 00:06:42;;;;;;;0.30;0.30;;;;;;;11.61;99.27;94561.44;4372716;32;20245;-60
2023/04/24 00:09:09;;;;;;;4.40;0.40;;;;;;;11.66;99.47;94551.41;4390784;32;20192;-59
2023/04/24 00:11:36;;;;;;;0.33;0.33;;;;;;;11.77;99.05;94543.13;4382184;32;20233;-59
2023/04/24 00:14:01;;;;;;;0.00;0.00;;;;;;;11.64;98.85;94542.97;4377121;32;20342;-59
2023/04/24 00:16:27;;;;;;;0.13;0.13;;;;;;;11.80;98.43;94534.53;4389472;32;20195;-59
2023/04/24 00:18:53;;;;;;;0.63;0.40;;;;;;;11.91;98.02;94541.03;4368696;32;20237;-59
2023/04/24 00:21:18;;;;;;;0.13;0.13;;;;;;;11.74;97.37;94546.38;4387213;32;20188;-59
2023/04/24 00:23:44;;;;;;;0.27;0.27;;;;;;;11.80;97.19;94540.62;4386510;32;20204;-59
2023/04/24 00:26:09;;;;;;;0.17;0.17;;;;;;;11.82;97.42;94542.97;4386581;32;20212;-59
2023/04/24 00:28:35;;;;;;;0.13;0.13;;;;;;;11.86;96.79;94534.00;4389301;32;20232;-59
2023/04/24 00:31:00;;;;;;;0.10;0.10;;;;;;;11.91;96.71;94539.16;4376732;32;20271;-59
2023/04/24 00:33:26;;;;;;;0.10;0.10;;;;;;;11.79;96.40;94533.75;4371676;32;20259;-59
2023/04/24 00:35:51;;;;;;;0.60;0.60;;;;;;;11.93;95.93;94542.25;4368005;32;20192;-59
2023/04/24 00:38:16;;;;;;;0.10;0.10;;;;;;;11.79;96.18;94540.94;4369137;32;20215;-59
2023/04/24 00:40:42;;;;;;;0.30;0.30;;;;;;;11.74;96.44;94543.72;4386905;32;20219;-59
2023/04/24 00:43:07;;;;;;;0.00;0.00;;;;;;;11.64;95.58;94548.28;4377966;32;20180;-59
2023/04/24 00:45:32;;;;;;;0.27;0.27;;;;;;;11.60;96.54;94536.75;4374313;32;20200;-59
2023/04/24 00:48:00;;;;;;;0.10;0.10;;;;;;;11.47;96.41;94537.72;4387979;32;20188;-59
2023/04/24 00:50:26;;;;;;;0.10;0.10;;;;;;;11.52;96.81;94537.56;4369988;32;20202;-59
2023/04/24 00:52:51;;;;;;;0.00;0.00;;;;;;;11.57;96.14;94537.41;4375664;32;20203;-58
2023/04/24 00:55:17;;;;;;;0.37;0.37;;;;;;;11.64;95.92;94527.03;4378635;32;20181;-59
2023/04/24 00:57:43;;;;;;;0.00;0.00;;;;;;;11.61;95.60;94537.53;4388503;32;20206;-59
2023/04/24 01:00:12;;;;;;;1.17;0.50;;;;;;;11.60;95.12;94531.44;4370022;32;20271;-59
2023/04/24 01:02:40;;;;;;;0.00;0.00;;;;;;;11.46;95.35;94530.06;4373736;32;20177;-59
2023/04/24 01:05:07;;;;;;;0.10;0.10;;;;;;;11.47;95.40;94532.41;4375582;32;20199;-59
2023/04/24 01:07:34;;;;;;;0.10;0.10;;;;;;;11.30;96.09;94535.91;4371325;32;20177;-59
2023/04/24 01:09:59;;;;;;;0.03;0.03;;;;;;;11.19;96.16;94541.88;4384831;32;20200;-59
2023/04/24 01:12:25;;;;;;;0.00;0.00;;;;;;;11.07;95.85;94531.13;4366448;32;20255;-59
2023/04/24 01:14:50;;;;;;;0.00;0.00;;;;;;;11.03;96.29;94529.09;4375518;32;20189;-58
2023/04/24 01:17:15;;;;;;;0.10;0.10;;;;;;;10.84;97.30;94533.97;4388077;32;20216;-59
2023/04/24 01:19:41;;;;;;;0.00;0.00;;;;;;;11.00;98.10;94535.06;4388516;32;20193;-59
2023/04/24 01:22:14;;;;;;;0.47;0.30;;;;;;;11.10;96.18;94539.25;4392347;32;20252;-58
2023/04/24 01:24:40;;;;;;;0.00;0.00;;;;;;;11.14;96.10;94531.44;4384211;32;20199;-59
2023/04/24 01:27:07;;;;;;;0.13;0.13;;;;;;;11.05;96.05;94518.16;4374018;32;20192;-59
2023/04/24 01:29:34;;;;;;;0.20;0.20;;;;;;;11.09;95.17;94523.63;4374852;32;20192;-59
2023/04/24 01:32:03;;;;;;;0.00;0.00;;;;;;;10.97;95.38;94524.28;4377819;32;20216;-59
2023/04/24 01:34:29;;;;;;;0.10;0.10;;;;;;;10.95;95.57;94521.94;4374290;32;20188;-59
2023/04/24 01:36:55;;;;;;;0.10;0.10;;;;;;;10.92;95.11;94522.56;4388867;32;20231;-58
2023/04/24 01:39:23;;;;;;;0.07;0.07;;;;;;;11.04;95.32;94519.25;4369193;32;20183;-58
2023/04/24 01:41:49;;;;;;;0.10;0.10;;;;;;;11.13;93.96;94517.38;4390682;32;20249;-59
2023/04/24 01:44:15;;;;;;;0.00;0.00;;;;;;;11.00;94.10;94516.47;4374278;32;20256;-59
2023/04/24 01:46:41;;;;;;;0.00;0.00;;;;;;;11.06;93.58;94522.38;4377508;32;20180;-61
2023/04/24 01:49:06;;;;;;;0.00;0.00;;;;;;;11.12;93.88;94520.34;4374933;32;20241;-58
2023/04/24 01:51:31;;;;;;;0.60;0.60;;;;;;;11.10;93.79;94527.84;4393257;32;20195;-59
2023/04/24 01:53:57;;;;;;;0.10;0.10;;;;;;;11.03;93.92;94523.78;4377967;32;20211;-59
2023/04/24 01:56:22;;;;;;;0.00;0.00;;;;;;;10.95;93.77;94529.91;4386296;32;20259;-59
2023/04/24 01:58:50;;;;;;;0.00;0.00;;;;;;;10.93;94.89;94529.44;4372566;32;20183;-59
2023/04/24 02:01:19;;;;;;;0.20;0.20;;;;;;;10.90;94.67;94530.06;4387930;32;20193;-59
2023/04/24 02:03:45;;;;;;;0.00;0.00;;;;;;;10.91;94.27;94528.97;4388661;32;20224;-58
2023/04/24 02:06:10;;;;;;;0.00;0.00;;;;;;;10.86;94.65;94526.47;4394484;32;20211;-59
2023/04/24 02:08:35;;;;;;;0.77;0.20;;;;;;;10.86;95.05;94523.81;4392748;32;20215;-59
2023/04/24 02:11:02;;;;;;;0.20;0.20;;;;;;;11.03;94.11;94523.00;4369555;32;20189;-59
2023/04/24 02:13:27;;;;;;;0.43;0.20;;;;;;;11.16;93.59;94527.38;4391124;32;20208;-59
2023/04/24 02:15:53;;;;;;;0.00;0.00;;;;;;;11.20;93.04;94525.66;4380687;32;20184;-58
2023/04/24 02:18:18;;;;;;;0.10;0.10;;;;;;;11.03;93.19;94521.13;4372149;32;20188;-58
2023/04/24 02:20:43;;;;;;;0.00;0.00;;;;;;;11.08;92.91;94514.88;4390035;32;20188;-59
2023/04/24 02:23:09;;;;;;;0.00;0.00;;;;;;;11.09;92.31;94520.97;4378752;32;20180;-59
2023/04/24 02:25:34;;;;;;;0.00;0.00;;;;;;;10.92;92.57;94519.91;4385548;32;20180;-59
2023/04/24 02:27:59;;;;;;;0.00;0.00;;;;;;;11.01;91.93;94525.22;4373655;32;20238;-59
2023/04/24 02:30:25;;;;;;;0.00;0.00;;;;;;;10.90;92.47;94513.34;4368390;32;20196;-59
2023/04/24 02:32:53;;;;;;;0.10;0.10;;;;;;;10.72;93.66;94519.78;4372789;32;20173;-59
2023/04/24 02:35:19;;;;;;;0.17;0.17;;;;;;;10.70;93.44;94517.44;4384950;32;20185;-59
2023/04/24 02:37:44;;;;;;;0.00;0.00;;;;;;;10.71;93.63;94516.34;4386899;32;20180;-58
2023/04/24 02:40:09;;;;;;;0.00;0.00;;;;;;;10.81;93.70;94517.88;4382319;32;20200;-58
2023/04/24 02:42:34;;;;;;;0.10;0.10;;;;;;;10.73;92.94;94514.16;4389418;32;20192;-59
2023/04/24 02:45:00;;;;;;;0.10;0.10;;;;;;;10.91;93.18;94513.03;4380402;32;20287;-59
2023/04/24 02:47:25;;;;;;;0.00;0.00;;;;;;;10.78;92.96;94519.31;4386506;32;20256;-59
2023/04/24 02:49:50;;;;;;;0.00;0.00;;;;;;;10.74;93.16;94521.03;4371350;32;20195;-59
2023/04/24 02:52:16;;;;;;;0.00;0.00;;;;;;;10.91;92.69;94521.00;4391629;32;20243;-58
2023/04/24 02:54:42;;;;;;;0.00;0.00;;;;;;;10.87;93.20;94524.59;4383780;32;20210;-59
2023/04/24 02:57:07;;;;;;;0.37;0.10;;;;;;;10.68;93.34;94522.28;4376010;32;20185;-58
2023/04/24 02:59:33;;;;;;;0.00;0.00;;;;;;;10.71;94.12;94513.69;4387156;32;20199;-59
2023/04/24 03:01:58;;;;;;;0.00;0.00;;;;;;;10.74;93.91;94523.69;4388802;32;20177;-59
2023/04/24 03:04:23;;;;;;;0.03;0.03;;;;;;;10.59;94.42;94517.00;4369516;32;20257;-58
2023/04/24 03:06:49;;;;;;;0.47;0.20;;;;;;;10.63;94.07;94517.12;4389881;32;20246;-58
2023/04/24 03:09:14;;;;;;;0.00;0.00;;;;;;;10.60;95.08;94517.75;4365051;32;20204;-59
2023/04/24 03:11:40;;;;;;;1.23;0.10;;;;;;;10.58;95.31;94517.31;4378520;32;20204;-58
2023/04/24 03:14:05;;;;;;;0.10;0.10;;;;;;;10.60;95.08;94517.75;4364789;32;20253;-59
2023/04/24 03:16:31;;;;;;;0.87;0.27;;;;;;;10.61;95.18;94516.66;4385707;32;20180;-58
2023/04/24 03:18:56;;;;;;;0.00;0.00;;;;;;;10.50;95.26;94510.91;4371427;32;20244;-59
2023/04/24 03:21:22;;;;;;;0.13;0.13;;;;;;;10.66;94.78;94511.97;4390152;32;20184;-59
2023/04/24 03:23:47;;;;;;;0.33;0.23;;;;;;;10.70;95.04;94520.09;4385260;32;20185;-59
2023/04/24 03:26:13;;;;;;;0.00;0.00;;;;;;;10.59;95.98;94529.47;4379787;32;20261;-59
2023/04/24 03:28:38;;;;;;;0.00;0.00;;;;;;;10.54;95.23;94521.66;4390617;32;20203;-59
2023/04/24 03:31:03;;;;;;;0.00;0.00;;;;;;;10.37;96.81;94524.31;4383870;32;20226;-59
2023/04/24 03:33:29;;;;;;;0.23;0.17;;;;;;;10.42;96.92;94524.12;4372088;32;20208;-59
2023/04/24 03:35:54;;;;;;;0.17;0.17;;;;;;;10.45;96.57;94526.94;4369287;32;20188;-59
2023/04/24 03:38:19;;;;;;;0.00;0.00;;;;;;;10.47;96.75;94530.06;4372304;32;20199;-59
2023/04/24 03:40:45;;;;;;;0.13;0.10;;;;;;;10.37;96.94;94525.09;4385957;32;20239;-59
2023/04/24 03:43:10;;;;;;;0.00;0.00;;;;;;;10.47;97.19;94529.28;4370340;32;20193;-58
2023/04/24 03:45:35;;;;;;;0.00;0.00;;;;;;;10.49;97.12;94527.91;4386860;32;20188;-59
2023/04/24 03:48:01;;;;;;;1.80;0.40;;;;;;;10.49;97.35;94527.13;4376116;32;20259;-59
2023/04/24 03:50:26;;;;;;;0.00;0.00;;;;;;;10.56;97.33;94535.41;4388840;32;20224;-60
2023/04/24 03:52:51;;;;;;;0.40;0.27;;;;;;;10.59;97.14;94524.94;4372713;32;20274;-58
2023/04/24 03:55:17;;;;;;;0.20;0.20;;;;;;;10.50;97.42;94516.19;4383619;32;20192;-58
2023/04/24 03:57:42;;;;;;;0.00;0.00;;;;;;;10.41;98.01;94520.72;4391212;32;20245;-59
2023/04/24 04:00:08;;;;;;;0.87;0.23;;;;;;;10.44;98.34;94516.66;4369247;32;20203;-58
2023/04/24 04:02:34;;;;;;;0.10;0.10;;;;;;;10.55;98.15;94517.91;4365267;32;20189;-58
2023/04/24 04:04:59;;;;;;;1.17;0.53;;;;;;;10.69;97.35;94510.56;4368721;32;20172;-59
2023/04/24 04:07:25;;;;;;;0.10;0.10;;;;;;;10.74;97.10;94510.41;4367497;32;20203;-58
2023/04/24 04:09:50;;;;;;;0.00;0.00;;;;;;;10.64;97.16;94502.78;4390201;32;20265;-59
2023/04/24 04:12:16;;;;;;;0.00;0.00;;;;;;;10.77;97.00;94501.06;4374308;32;20295;-58
2023/04/24 04:14:41;;;;;;;0.10;0.10;;;;;;;10.84;96.81;94507.44;4370704;32;20193;-59
2023/04/24 04:17:06;;;;;;;0.30;0.10;;;;;;;10.86;96.18;94507.91;4381153;32;20212;-58
2023/04/24 04:19:32;;;;;;;0.17;0.17;;;;;;;10.87;96.04;94504.16;4384126;32;20185;-58
2023/04/24 04:21:57;;;;;;;0.20;0.20;;;;;;;10.88;95.99;94503.06;4369069;32;20247;-58
2023/04/24 04:24:23;;;;;;;0.10;0.10;;;;;;;10.79;96.35;94506.84;4375961;32;20180;-59
2023/04/24 04:26:50;;;;;;;0.00;0.00;;;;;;;10.89;96.37;94515.22;4373034;32;20259;-58
2023/04/24 04:29:17;;;;;;;0.40;0.30;;;;;;;10.84;96.72;94518.03;4363378;32;20233;-59
2023/04/24 04:31:43;;;;;;;0.00;0.00;;;;;;;10.91;96.12;94514.91;4388889;32;20196;-59
2023/04/24 04:34:08;;;;;;;0.30;0.30;;;;;;;10.75;96.33;94516.50;4391542;32;20206;-58
2023/04/24 04:36:36;;;;;;;0.37;0.20;;;;;;;10.94;95.62;94520.37;4376258;32;20181;-59
2023/04/24 04:39:03;;;;;;;0.23;0.23;;;;;;;10.96;95.78;94518.19;4390779;32;20207;-58
2023/04/24 04:41:28;;;;;;;0.00;0.00;;;;;;;10.83;95.95;94524.44;4367865;32;20247;-58
2023/04/24 04:43:53;;;;;;;0.00;0.00;;;;;;;10.94;95.55;94523.03;4390203;32;20193;-59
2023/04/24 04:46:19;;;;;;;5.20;0.67;;;;;;;10.92;95.27;94521.78;4366194;32;20188;-58
2023/04/24 04:48:44;;;;;;;0.00;0.00;;;;;;;10.91;95.14;94525.53;4372394;32;20188;-58
2023/04/24 04:51:09;;;;;;;0.20;0.20;;;;;;;11.01;95.08;94528.63;4385065;32;20244;-59
2023/04/24 04:53:35;;;;;;;0.17;0.17;;;;;;;10.80;95.77;94534.94;4371134;32;20192;-59
2023/04/24 04:56:00;;;;;;;0.00;0.00;;;;;;;10.87;95.57;94536.00;4369798;32;20289;-58
2023/04/24 04:58:26;;;;;;;0.10;0.10;;;;;;;10.86;94.88;94534.44;4373028;32;20203;-59
2023/04/24 05:00:52;;;;;;;0.10;0.10;;;;;;;10.75;95.31;94535.84;4385533;32;20185;-59
2023/04/24 05:03:19;;;;;;;0.20;0.20;;;;;;;10.62;95.97;94534.13;4366915;32;20263;-59
2023/04/24 05:05:45;;;;;;;0.10;0.10;;;;;;;10.73;95.85;94530.09;4359749;32;20192;-61
2023/04/24 05:08:16;;;;;;;2.47;0.27;;;;;;;10.61;95.33;94545.81;4356849;32;20204;-60
2023/04/24 05:10:42;;;;;;;0.17;0.17;;;;;;;10.63;95.66;94535.69;4368175;32;20223;-60
2023/04/24 05:13:08;;;;;;;0.00;0.00;;;;;;;10.69;94.97;94545.06;4367325;32;20193;-59
2023/04/24 05:15:34;;;;;;;0.00;0.00;;;;;;;10.67;95.42;94552.53;4386891;32;22388;-59
2023/04/24 05:18:02;;;;;;;0.77;0.20;;;;;;;10.57;95.58;94558.19;4375031;32;20197;-59
2023/04/24 05:20:29;;;;;;;0.00;0.00;;;;;;;10.58;95.74;94549.13;4350086;32;20201;-59
2023/04/24 05:22:57;;;;;;;0.00;0.00;;;;;;;10.59;95.71;94556.00;4351445;32;20184;-59
2023/04/24 05:25:23;;;;;;;0.00;0.00;;;;;;;10.62;95.21;94555.34;4356717;32;20290;-59
2023/04/24 05:27:49;;;;;;;0.07;0.07;;;;;;;10.86;94.47;94555.66;4351239;32;20200;-59
2023/04/24 05:30:16;;;;;;;0.20;0.20;;;;;;;10.81;94.06;94565.63;4321147;32;20212;-59
2023/04/24 05:32:41;;;;;;;0.47;0.27;;;;;;;10.92;93.89;94562.38;4334311;32;20275;-60
2023/04/24 05:35:07;;;;;;;0.00;0.00;;;;;;;10.78;93.23;94564.41;4349135;32;20268;-59
2023/04/24 05:37:34;;;;;;;0.20;0.20;;;;;;;10.78;93.24;94564.41;4358338;32;20208;-59
2023/04/24 05:40:01;;;;;;;1.40;0.30;;;;;;;10.60;93.78;94560.97;4374165;32;20246;-59
2023/04/24 05:42:29;;;;;;;0.10;0.10;;;;;;;10.78;94.24;94556.47;4319918;32;20232;-59
2023/04/24 05:44:56;;;;;;;0.03;0.03;;;;;;;10.90;93.60;94561.13;4307514;32;20204;-59
2023/04/24 05:47:23;;;;;;;0.17;0.17;;;;;;;10.79;93.33;94560.69;4343543;32;20197;-59
2023/04/24 05:49:50;;;;;;;0.10;0.10;;;;;;;10.73;93.55;94561.13;4339375;32;20251;-59
2023/04/24 05:52:17;;;;;;;0.23;0.13;;;;;;;10.67;93.37;94560.50;4337809;32;20227;-59
2023/04/24 05:54:46;;;;;;;6.47;2.63;;;;;;;10.64;93.78;94574.37;4340436;32;20197;-67
2023/04/24 05:57:14;;;;;;;1.10;0.90;;;;;;;12.11;100.00;94555.47;4366320;32;20216;-64
2023/04/24 05:59:40;;;;;;;0.60;0.60;;;;;;;13.09;100.00;94563.66;4353647;32;20259;-66
2023/04/24 06:02:08;;;;;;;1.60;1.00;;;;;;;13.77;100.00;94564.06;4355859;32;20188;-66
2023/04/24 06:04:34;;;;;;;0.30;0.30;;;;;;;14.74;96.82;94565.19;4319043;32;21542;-64
2023/04/24 06:07:00;;;;;;;0.10;0.10;;;;;;;15.18;89.43;94562.56;4347780;32;20200;-62
2023/04/24 06:09:27;;;;;;;0.10;0.10;;;;;;;15.76;83.74;94566.41;4337028;32;20185;-62
2023/04/24 06:11:53;;;;;;;0.80;0.30;;;;;;;15.95;79.79;94569.19;4332077;32;20200;-62
2023/04/24 06:14:20;;;;;;;1.30;1.20;;;;;;;16.10;77.38;94570.28;4342884;32;20189;-63
2023/04/24 06:16:45;;;;;;;1.20;1.07;;;;;;;16.28;77.48;94573.38;4361746;32;20198;-62
2023/04/24 06:19:12;;;;;;;0.00;0.00;;;;;;;16.44;76.66;94569.56;4372531;32;20291;-59
2023/04/24 06:21:39;;;;;;;0.10;0.10;;;;;;;15.03;72.21;94575.53;4370899;32;20188;-58
2023/04/24 06:24:06;;;;;;;0.07;0.07;;;;;;;14.30;74.81;94570.31;4374192;32;20193;-59
2023/04/24 06:26:32;;;;;;;0.50;0.50;;;;;;;13.58;78.30;94577.16;4365748;32;20296;-61
2023/04/24 06:28:59;;;;;;;0.30;0.30;;;;;;;13.27;79.83;94579.53;4340816;32;20228;-60
2023/04/24 06:31:26;;;;;;;0.00;0.00;;;;;;;12.72;82.18;94572.59;4361744;32;20188;-58
2023/04/24 06:33:52;;;;;;;0.07;0.07;;;;;;;12.45;83.33;94575.78;4343414;32;20251;-59
2023/04/24 06:36:25;;;;;;;0.03;0.03;;;;;;;11.82;85.46;94578.28;4350014;32;20240;-59
2023/04/24 06:38:52;;;;;;;0.20;0.20;;;;;;;11.79;86.38;94580.78;4371558;32;20236;-58
2023/04/24 06:41:17;;;;;;;0.10;0.10;;;;;;;11.83;86.64;94589.69;4376456;32;20246;-58
2023/04/24 06:43:44;;;;;;;0.07;0.07;;;;;;;11.81;87.14;94583.91;4359375;32;20193;-58
2023/04/24 06:46:14;;;;;;;0.30;0.20;;;;;;;11.64;87.82;94585.47;4374462;32;20262;-58
2023/04/24 06:48:43;;;;;;;0.00;0.00;;;;;;;11.71;87.52;94585.78;4341721;32;20233;-58
2023/04/24 06:51:10;;;;;;;0.00;0.00;;;;;;;11.50;88.75;94592.09;4344482;32;20277;-58
2023/04/24 06:53:37;;;;;;;0.00;0.00;;;;;;;11.28;87.98;94583.25;4342767;32;20193;-58
2023/04/24 06:56:03;;;;;;;0.10;0.10;;;;;;;11.35;89.16;94588.06;4339469;32;20215;-58
2023/04/24 06:58:31;;;;;;;0.10;0.10;;;;;;;11.46;89.30;94588.50;4359845;32;20197;-58
2023/04/24 07:00:58;;;;;;;1.50;0.40;;;;;;;11.53;88.65;94589.59;4341942;32;20180;-63
2023/04/24 07:03:25;;;;;;;0.37;0.07;;;;;;;11.45;88.45;94584.28;4322899;32;20189;-58
2023/04/24 07:05:53;;;;;;;0.10;0.10;;;;;;;11.36;88.96;94584.31;4365211;32;20181;-58
2023/04/24 07:08:21;;;;;;;0.10;0.10;;;;;;;11.39;88.46;94586.34;4348289;32;20193;-57
2023/04/24 07:10:50;;;;;;;0.00;0.00;;;;;;;11.35;88.35;94583.53;4337554;32;20312;-58
2023/04/24 07:13:26;;;;;;;0.10;0.10;;;;;;;11.51;87.77;94583.03;4343959;32;20245;-58
2023/04/24 07:15:56;;;;;;;0.53;0.20;;;;;;;11.54;87.64;94583.19;4337873;32;20200;-60
2023/04/24 07:18:26;;;;;;;0.00;0.00;;;;;;;11.46;87.19;94599.91;4365937;32;20220;-58
2023/04/24 07:20:54;;;;;;;0.20;0.20;;;;;;;11.39;87.19;94591.66;4342660;32;20188;-58
2023/04/24 07:23:21;;;;;;;0.10;0.10;;;;;;;11.48;86.89;94600.38;4360225;32;20225;-58
2023/04/24 07:25:48;;;;;;;0.00;0.00;;;;;;;11.41;87.48;94600.09;4307886;32;20209;-58
2023/04/24 07:28:14;;;;;;;0.00;0.00;;;;;;;11.48;86.99;94604.91;4372214;32;20196;-59
2023/04/24 07:30:43;;;;;;;0.00;0.00;;;;;;;11.57;86.15;94611.78;4374052;32;20192;-59
2023/04/24 07:33:11;;;;;;;0.00;0.00;;;;;;;11.59;86.02;94612.25;4360851;32;20193;-59
2023/04/24 07:35:40;;;;;;;0.10;0.10;;;;;;;11.68;86.32;94606.88;4341250;32;20193;-59
2023/04/24 07:38:07;;;;;;;0.10;0.10;;;;;;;11.71;85.47;94620.31;4360332;32;20232;-58
2023/04/24 07:40:33;;;;;;;0.00;0.00;;;;;;;11.78;85.62;94616.44;4384354;32;20319;-58
2023/04/24 07:43:00;;;;;;;0.20;0.13;;;;;;;11.83;84.77;94616.28;4382638;32;20215;-58
2023/04/24 07:45:28;;;;;;;0.00;0.00;;;;;;;11.85;85.12;94622.03;4345581;32;20212;-58
2023/04/24 07:47:54;;;;;;;0.00;0.00;;;;;;;11.87;84.29;94622.47;4342582;32;20244;-60
2023/04/24 07:50:21;;;;;;;3.13;0.33;;;;;;;11.79;85.17;94628.63;4336238;32;20192;-58
2023/04/24 07:52:50;;;;;;;0.00;0.00;;;;;;;11.81;84.31;94623.78;4386849;32;20345;-58
2023/04/24 07:55:16;;;;;;;0.00;0.00;;;;;;;11.92;84.87;94622.31;4364009;32;20199;-58
2023/04/24 07:57:43;;;;;;;0.13;0.13;;;;;;;11.86;83.12;94626.25;4369789;32;20254;-58
2023/04/24 08:00:10;;;;;;;0.00;0.00;;;;;;;11.88;83.74;94624.03;4384061;32;20206;-58
2023/04/24 08:02:37;;;;;;;0.77;0.30;;;;;;;12.04;83.52;94627.75;4382095;32;20189;-58
2023/04/24 08:05:03;;;;;;;0.00;0.00;;;;;;;11.93;82.99;94631.84;4364084;32;20199;-58
2023/04/24 08:07:29;;;;;;;0.10;0.10;;;;;;;12.08;82.33;94636.63;4369181;32;20248;-58
2023/04/24 08:09:55;;;;;;;0.07;0.07;;;;;;;12.01;81.68;94636.38;4371478;32;20211;-58
2023/04/24 08:12:21;;;;;;;1.60;0.30;;;;;;;12.04;81.87;94641.84;4342622;32;20192;-58
2023/04/24 08:14:48;;;;;;;0.47;0.47;;;;;;;12.02;81.44;94645.91;4383938;32;20204;-58
2023/04/24 08:17:15;;;;;;;0.00;0.00;;;;;;;12.19;82.27;94635.19;4340981;32;20201;-58
2023/04/24 08:19:47;;;;;;;0.40;0.30;;;;;;;12.10;81.38;94647.72;4354161;32;20192;-58
2023/04/24 08:22:18;;;;;;;0.00;0.00;;;;;;;12.01;82.01;94641.69;4371463;32;20236;-58
2023/04/24 08:24:45;;;;;;;0.20;0.20;;;;;;;12.12;82.04;94650.06;4363158;32;20192;-58
2023/04/24 08:27:11;;;;;;;0.10;0.10;;;;;;;12.21;81.97;94637.53;4342804;32;20220;-58
2023/04/24 08:29:38;;;;;;;0.10;0.10;;;;;;;12.21;81.77;94646.28;4355194;32;20189;-58
2023/04/24 08:32:03;;;;;;;0.00;0.00;;;;;;;12.22;81.88;94647.84;4379735;32;20275;-57
2023/04/24 08:34:30;;;;;;;0.10;0.10;;;;;;;12.24;83.29;94650.19;4309800;32;20205;-58
2023/04/24 08:36:56;;;;;;;0.50;0.30;;;;;;;12.03;84.63;94639.50;4356415;32;20204;-58
2023/04/24 08:39:22;;;;;;;0.00;0.00;;;;;;;11.95;85.92;94649.03;4358164;32;20246;-58
2023/04/24 08:41:49;;;;;;;0.00;0.00;;;;;;;11.80;86.18;94651.44;4373762;32;20240;-58
2023/04/24 08:44:18;;;;;;;0.20;0.20;;;;;;;11.68;87.06;94674.09;4365723;32;20243;-60
2023/04/24 08:46:47;;;;;;;0.17;0.17;;;;;;;11.57;89.98;94683.50;4321768;32;20189;-58
2023/04/24 08:49:20;;;;;;;0.03;0.03;;;;;;;11.65;89.10;94685.34;4348403;32;20282;-58
2023/04/24 08:51:47;;;;;;;0.10;0.10;;;;;;;11.69;87.67;94680.97;4361973;32;20196;-58
2023/04/24 08:54:13;;;;;;;0.20;0.20;;;;;;;11.68;87.41;94679.41;4385814;32;20258;-59
2023/04/24 08:56:44;;;;;;;0.13;0.13;;;;;;;11.80;84.50;94689.44;4383507;32;20207;-58
2023/04/24 08:59:12;;;;;;;0.10;0.10;;;;;;;11.56;82.68;94687.25;4344817;32;20184;-59
2023/04/24 09:01:40;;;;;;;0.30;0.30;;;;;;;11.69;82.14;94696.13;4361480;32;20240;-58
2023/04/24 09:04:31;;;;;;;0.57;0.57;;;;;;;11.75;77.15;94710.03;4361241;32;20252;-58
2023/04/24 09:06:58;;;;;;;0.10;0.10;;;;;;;11.46;76.15;94695.53;4364146;32;20201;-56
2023/04/24 09:09:25;;;;;;;0.00;0.00;;;;;;;11.51;76.49;94713.97;4342107;32;20207;-58
2023/04/24 09:11:55;;;;;;;0.10;0.10;;;;;;;11.49;75.69;94710.06;4330189;32;20204;-58
2023/04/24 09:14:25;;;;;;;0.00;0.00;;;;;;;11.65;76.09;94711.91;4369894;32;20249;-58
2023/04/24 09:16:53;;;;;;;1.50;0.67;;;;;;;11.70;76.05;94705.66;4392983;32;20201;-58
2023/04/24 09:19:21;;;;;;;0.20;0.20;;;;;;;11.65;76.03;94703.94;4362764;32;20200;-59
2023/04/24 09:21:52;;;;;;;0.50;0.50;;;;;;;11.82;76.05;94703.19;4364052;32;20212;-58
2023/04/24 09:24:25;;;;;;;0.10;0.10;;;;;;;11.78;76.79;94704.91;4358513;32;20228;-58
2023/04/24 09:26:58;;;;;;;0.00;0.00;;;;;;;11.77;77.37;94699.91;4350898;32;20247;-58
2023/04/24 09:29:26;;;;;;;0.20;0.20;;;;;;;11.73;77.42;94705.03;4328113;32;20192;-58
2023/04/24 09:31:53;;;;;;;0.23;0.23;;;;;;;11.96;77.23;94711.75;4374113;32;20256;-58
2023/04/24 09:34:27;;;;;;;0.20;0.20;;;;;;;11.87;77.62;94715.50;4351424;32;20290;-58
2023/04/24 09:36:55;;;;;;;0.10;0.10;;;;;;;11.93;76.87;94703.63;4346617;32;20279;-58
2023/04/24 09:39:23;;;;;;;0.20;0.20;;;;;;;11.62;76.79;94709.13;4357160;32;20205;-58
2023/04/24 09:41:53;;;;;;;0.40;0.40;;;;;;;11.70;76.25;94706.44;4362297;32;20232;-58
2023/04/24 09:44:22;;;;;;;0.50;0.50;;;;;;;11.97;76.05;94708.00;4370687;32;20243;-58
2023/04/24 09:47:12;;;;;;;1.03;0.20;;;;;;;11.75;76.24;94718.00;4387330;32;20204;-58
2023/04/24 09:49:41;;;;;;;0.30;0.30;;;;;;;11.87;75.06;94713.63;4376184;32;20212;-58
2023/04/24 09:52:11;;;;;;;0.27;0.27;;;;;;;12.10;74.92;94706.22;4382264;32;20197;-60
2023/04/24 09:54:38;;;;;;;0.20;0.20;;;;;;;12.17;74.78;94701.22;4359858;32;20320;-59
2023/04/24 09:57:10;;;;;;;0.10;0.10;;;;;;;12.09;75.14;94701.22;4361621;32;20215;-59
2023/04/24 09:59:48;;;;;;;0.20;0.20;;;;;;;12.17;73.75;94703.87;4381487;32;20294;-60
2023/04/24 10:02:20;;;;;;;0.07;0.07;;;;;;;12.16;73.88;94699.66;4364587;32;20192;-60
2023/04/24 10:05:05;;;;;;;2.83;0.43;;;;;;;12.25;74.45;94703.06;4369391;32;20209;-59
2023/04/24 10:07:32;;;;;;;0.17;0.17;;;;;;;12.44;73.92;94696.56;4370991;32;20212;-59
2023/04/24 10:10:01;;;;;;;0.07;0.07;;;;;;;12.52;74.42;94687.75;4353999;32;20238;-60
2023/04/24 10:12:30;;;;;;;0.40;0.40;;;;;;;12.67;73.29;94696.00;4342569;32;20194;-59
2023/04/24 10:14:59;;;;;;;0.37;0.37;;;;;;;12.63;75.20;94695.06;4349092;32;20201;-60
2023/04/24 10:17:26;;;;;;;0.53;0.47;;;;;;;12.81;73.63;94687.75;4360774;32;20180;-60
2023/04/24 10:19:53;;;;;;;0.20;0.20;;;;;;;12.74;73.82;94692.81;4364268;32;20252;-59
2023/04/24 10:22:21;;;;;;;0.40;0.40;;;;;;;12.76;73.80;94701.25;4361909;32;20255;-59
2023/04/24 10:24:50;;;;;;;0.30;0.30;;;;;;;12.83;74.92;94692.78;4358863;32;20196;-60
2023/04/24 10:27:17;;;;;;;0.27;0.27;;;;;;;12.72;73.86;94692.34;4374220;32;20212;-59
2023/04/24 10:29:45;;;;;;;0.67;0.67;;;;;;;12.71;73.45;94685.47;4385651;32;20200;-62
2023/04/24 10:32:11;;;;;;;0.10;0.10;;;;;;;12.68;72.14;94680.78;4361445;32;20205;-60
2023/04/24 10:34:37;;;;;;;0.30;0.30;;;;;;;12.81;71.58;94679.78;4383898;32;20311;-60
2023/04/24 10:37:03;;;;;;;0.57;0.40;;;;;;;12.86;71.24;94676.94;4349148;32;20316;-60
2023/04/24 10:39:33;;;;;;;0.73;0.57;;;;;;;13.07;71.38;94680.41;4346494;32;20286;-60
2023/04/24 10:42:01;;;;;;;0.10;0.10;;;;;;;13.11;71.31;94677.06;4367691;32;20240;-60
2023/04/24 10:44:36;;;;;;;0.30;0.30;;;;;;;13.20;71.97;94675.16;4366775;32;20188;-60
2023/04/24 10:47:04;;;;;;;0.10;0.10;;;;;;;13.12;71.30;94675.97;4365670;32;20260;-59
2023/04/24 10:49:35;;;;;;;0.20;0.20;;;;;;;12.91;72.12;94683.94;4321654;32;20290;-59
2023/04/24 10:52:06;;;;;;;0.30;0.20;;;;;;;12.90;73.15;94682.38;4350428;32;20219;-60
2023/04/24 10:54:49;;;;;;;5.03;0.50;;;;;;;12.72;74.07;94692.34;4357496;32;20310;-60
2023/04/24 10:57:21;;;;;;;0.77;0.50;;;;;;;12.56;75.68;94729.38;4372669;32;20206;-60
2023/04/24 10:59:50;;;;;;;0.10;0.10;;;;;;;12.20;80.56;94750.31;4366854;32;20211;-60
2023/04/24 11:02:18;;;;;;;0.43;0.23;;;;;;;11.86;84.23;94748.50;4333841;32;20201;-57
2023/04/24 11:04:52;;;;;;;0.43;0.20;;;;;;;11.29;84.67;94743.34;4334539;32;20208;-58
2023/04/24 11:07:21;;;;;;;0.60;0.60;;;;;;;11.23;84.74;94728.63;4360632;32;20240;-60
2023/04/24 11:09:58;;;;;;;0.00;0.00;;;;;;;10.87;85.62;94727.03;4344696;32;20208;-60
2023/04/24 11:12:28;;;;;;;0.20;0.20;;;;;;;10.91;86.28;94712.06;4373129;32;20197;-60
2023/04/24 11:15:01;;;;;;;0.37;0.33;;;;;;;11.04;87.22;94713.00;4349107;32;20207;-58
2023/04/24 11:17:40;;;;;;;0.20;0.20;;;;;;;11.12;86.50;94712.25;4366900;32;20172;-58
2023/04/24 11:20:17;;;;;;;0.10;0.10;;;;;;;11.21;87.06;94712.25;4362031;32;20295;-60
2023/04/24 11:22:44;;;;;;;0.17;0.17;;;;;;;11.31;85.11;94703.97;4367083;32;20240;-61
2023/04/24 11:25:11;;;;;;;0.30;0.30;;;;;;;11.62;83.68;94706.47;4382616;32;20215;-60
2023/04/24 11:27:41;;;;;;;0.00;0.00;;;;;;;11.69;82.76;94710.19;4380688;32;20193;-60
2023/04/24 11:30:11;;;;;;;0.40;0.40;;;;;;;11.86;81.92;94713.94;4362250;32;20202;-60
2023/04/24 11:32:41;;;;;;;0.10;0.10;;;;;;;12.04;83.28;94707.50;4352424;32;20252;-60
2023/04/24 11:35:24;;;;;;;0.20;0.20;;;;;;;12.15;80.88;94721.22;4343739;32;20190;-59